Time;durP1;ratioP1;P1;durP2;ratioP2;P2;SDS_P1;SDS_P2;PMS_P1;PMS_P2;Temp;Humidity;BMP_temperature;BMP_pressure;BME280_temperature;BME280_humidity;BME280_pressure;Samples;Min_cycle;Max_cycle;Signal;HPM_P1;HPM_P2
2022/11/25 00:01:14;;;;;;;7.25;1.63;;;7.40;99.90;;;;;;5054580;28;20073;-70
2022/11/25 00:03:41;;;;;;;4.70;1.70;;;7.50;99.90;;;;;;5055508;28;20048;-71
2022/11/25 00:06:27;;;;;;;8.35;1.90;;;7.40;99.90;;;;;;5055444;28;20494;-70
2022/11/25 00:08:55;;;;;;;9.23;2.28;;;7.50;99.90;;;;;;5038482;28;20049;-70
2022/11/25 00:11:21;;;;;;;8.95;2.40;;;7.50;99.90;;;;;;5034118;28;20044;-71
2022/11/25 00:13:48;;;;;;;8.32;2.13;;;7.50;99.90;;;;;;5054576;28;20040;-70
2022/11/25 00:16:16;;;;;;;5.38;1.73;;;7.50;99.90;;;;;;5057816;28;20051;-70
2022/11/25 00:18:47;;;;;;;8.57;2.13;;;7.50;99.90;;;;;;5039351;28;20533;-70
2022/11/25 00:21:17;;;;;;;7.10;2.10;;;7.50;99.90;;;;;;5060213;28;20036;-70
2022/11/25 00:23:43;;;;;;;7.75;2.15;;;7.50;99.90;;;;;;5060551;28;20163;-70
2022/11/25 00:26:10;;;;;;;9.52;2.67;;;7.60;99.90;;;;;;5038975;28;20736;-70
2022/11/25 00:28:36;;;;;;;7.47;1.80;;;7.60;99.90;;;;;;5067868;28;20037;-71
2022/11/25 00:31:11;;;;;;;4.20;1.98;;;7.60;99.90;;;;;;5052552;28;20368;-70
2022/11/25 00:33:38;;;;;;;7.10;2.10;;;7.60;99.90;;;;;;5048268;28;20061;-71
2022/11/25 00:36:04;;;;;;;;;;;7.60;99.90;;;;;;5068766;28;20494;-71
2022/11/25 00:38:30;;;;;;;6.05;2.22;;;7.60;99.90;;;;;;5070593;28;19920;-70
2022/11/25 00:46:24;;;;;;;8.35;2.60;;;7.70;99.90;;;;;;5067983;28;20570;-71
2022/11/25 00:48:49;;;;;;;9.65;2.63;;;7.70;99.90;;;;;;5069309;28;20052;-70
2022/11/25 00:51:15;;;;;;;8.00;2.25;;;7.70;99.90;;;;;;5049454;28;20684;-71
2022/11/25 00:53:41;;;;;;;11.52;2.58;;;7.70;99.90;;;;;;5034584;28;20041;-70
2022/11/25 00:56:12;;;;;;;7.45;1.92;;;7.70;99.90;;;;;;5068438;28;20121;-70
2022/11/25 00:58:39;;;;;;;8.68;2.53;;;7.60;99.90;;;;;;5068636;28;20236;-70
2022/11/25 01:01:05;;;;;;;6.40;1.92;;;7.70;99.90;;;;;;5068586;28;20055;-70
2022/11/25 01:03:31;;;;;;;6.03;1.75;;;7.60;99.90;;;;;;5052244;28;20036;-71
2022/11/25 01:06:01;;;;;;;9.35;1.83;;;7.60;99.90;;;;;;5049433;28;20392;-71
2022/11/25 01:08:29;;;;;;;5.50;2.30;;;7.60;99.90;;;;;;5060189;28;20496;-70
2022/11/25 01:11:06;;;;;;;8.77;2.22;;;7.60;99.90;;;;;;5053931;28;20032;-70
2022/11/25 01:13:33;;;;;;;7.05;2.15;;;7.60;99.90;;;;;;5049320;28;20068;-70
2022/11/25 01:16:03;;;;;;;4.68;1.80;;;7.60;99.90;;;;;;5054006;28;20048;-70
2022/11/25 01:18:30;;;;;;;9.00;2.25;;;7.50;99.90;;;;;;5052171;28;20048;-69
2022/11/25 01:21:14;;;;;;;7.40;2.13;;;7.60;99.90;;;;;;5072544;28;20050;-70
2022/11/25 01:23:41;;;;;;;4.30;1.73;;;7.60;99.90;;;;;;5070403;28;20471;-70
2022/11/25 01:26:12;;;;;;;10.32;3.10;;;7.60;99.90;;;;;;5069723;28;20380;-69
2022/11/25 01:28:38;;;;;;;8.57;2.50;;;7.60;99.90;;;;;;5036643;28;20049;-69
2022/11/25 01:31:07;;;;;;;6.38;2.05;;;7.60;99.90;;;;;;5064105;28;20149;-70
2022/11/25 01:33:33;;;;;;;9.52;2.70;;;7.50;99.90;;;;;;5052494;28;20111;-70
2022/11/25 01:36:07;;;;;;;6.05;2.10;;;7.50;99.90;;;;;;5054248;28;20131;-70
2022/11/25 01:38:34;;;;;;;7.30;2.47;;;7.50;99.90;;;;;;5063103;28;20044;-70
2022/11/25 01:41:00;;;;;;;;;;;7.40;99.90;;;;;;5055349;28;20060;-70
2022/11/25 01:43:27;;;;;;;8.18;2.55;;;7.40;99.90;;;;;;5059389;28;19916;-70
2022/11/25 01:46:05;;;;;;;6.78;2.50;;;7.40;99.90;;;;;;5051186;28;20146;-70
2022/11/25 01:48:36;;;;;;;6.57;2.25;;;7.50;99.90;;;;;;5066568;28;20491;-69
2022/11/25 01:51:02;;;;;;;6.60;2.35;;;7.50;99.90;;;;;;5061775;28;20391;-70
2022/11/25 01:53:28;;;;;;;6.75;2.00;;;7.40;99.90;;;;;;5054911;28;20039;-70
2022/11/25 01:56:00;;;;;;;7.40;2.30;;;7.50;99.90;;;;;;5058273;28;20118;-70
2022/11/25 01:58:36;;;;;;;6.03;2.20;;;7.50;99.90;;;;;;5062213;28;20052;-70
2022/11/25 02:01:02;;;;;;;6.68;2.38;;;7.50;99.90;;;;;;5038952;28;20111;-70
2022/11/25 02:03:31;;;;;;;;;;;7.50;99.90;;;;;;5051574;28;20045;-70
2022/11/25 02:06:34;;;;;;;8.85;2.63;;;7.50;99.90;;;;;;5038294;28;20029;-70
2022/11/25 02:09:07;;;;;;;9.05;2.80;;;7.50;99.90;;;;;;5019664;28;20091;-71
2022/11/25 02:11:35;;;;;;;4.60;1.95;;;7.60;99.90;;;;;;5068909;28;20060;-71
2022/11/25 02:14:02;;;;;;;9.52;2.38;;;7.60;99.90;;;;;;5035023;28;20049;-70
2022/11/25 02:16:28;;;;;;;9.48;2.53;;;7.60;99.90;;;;;;5059660;28;20040;-69
2022/11/25 02:18:54;;;;;;;5.63;2.28;;;7.60;99.90;;;;;;5033946;28;20107;-70
2022/11/25 02:21:25;;;;;;;8.50;2.63;;;7.60;99.90;;;;;;5051307;28;20167;-69
2022/11/25 02:24:19;;;;;;;6.25;2.15;;;7.60;99.90;;;;;;5051507;28;20045;-69
2022/11/25 02:26:45;;;;;;;6.80;2.78;;;7.60;99.90;;;;;;5063725;28;20122;-70
2022/11/25 02:29:11;;;;;;;4.72;1.70;;;7.60;99.90;;;;;;5059898;28;20475;-70
2022/11/25 02:31:37;;;;;;;7.88;2.47;;;7.50;99.90;;;;;;5044195;28;20045;-70
2022/11/25 02:34:03;;;;;;;5.95;2.22;;;7.50;99.90;;;;;;5055714;28;20075;-70
2022/11/25 02:36:28;;;;;;;6.55;2.20;;;7.50;99.90;;;;;;5018611;28;20052;-70
2022/11/25 02:38:56;;;;;;;5.32;2.33;;;7.50;99.90;;;;;;5065967;28;20033;-69
2022/11/25 02:41:34;;;;;;;6.53;2.22;;;7.50;99.90;;;;;;5061621;28;20400;-69
2022/11/25 02:44:00;;;;;;;6.82;2.17;;;7.50;99.90;;;;;;5051244;28;20098;-70
2022/11/25 02:46:27;;;;;;;5.72;2.22;;;7.50;99.90;;;;;;5036839;28;20480;-69
2022/11/25 02:48:55;;;;;;;7.68;2.60;;;7.50;99.90;;;;;;5071576;28;20406;-69
2022/11/25 02:51:24;;;;;;;6.85;2.30;;;7.50;99.90;;;;;;5050955;28;20396;-70
2022/11/25 02:53:50;;;;;;;8.20;2.70;;;7.50;99.90;;;;;;5050792;28;20048;-69
2022/11/25 02:56:18;;;;;;;9.48;2.90;;;7.50;99.90;;;;;;5055603;28;20048;-69
2022/11/25 02:58:44;;;;;;;8.38;2.58;;;7.50;99.90;;;;;;5065023;28;20515;-69
2022/11/25 03:01:09;;;;;;;10.80;2.50;;;7.50;99.90;;;;;;5052795;28;20114;-74
2022/11/25 03:03:36;;;;;;;5.80;2.15;;;7.60;99.90;;;;;;5063946;28;20472;-74
2022/11/25 03:06:02;;;;;;;7.43;2.33;;;7.60;99.90;;;;;;5070941;28;20056;-74
2022/11/25 03:08:28;;;;;;;6.18;2.00;;;7.60;99.90;;;;;;5070748;28;20036;-74
2022/11/25 03:10:53;;;;;;;8.82;2.72;;;7.60;99.90;;;;;;5072103;28;20369;-74
2022/11/25 03:13:20;;;;;;;9.85;2.40;;;7.60;99.90;;;;;;5057083;28;20060;-75
2022/11/25 03:15:46;;;;;;;7.90;2.80;;;7.60;99.90;;;;;;5034133;28;20043;-75
2022/11/25 03:18:11;;;;;;;6.78;2.22;;;7.60;99.90;;;;;;5047680;28;20048;-74
2022/11/25 03:20:37;;;;;;;8.05;2.75;;;7.60;99.90;;;;;;5064280;28;20381;-74
2022/11/25 03:23:04;;;;;;;9.32;2.75;;;7.60;99.90;;;;;;5071009;28;20098;-74
2022/11/25 03:25:30;;;;;;;7.75;2.67;;;7.70;99.90;;;;;;5061742;28;20180;-74
2022/11/25 03:27:56;;;;;;;6.30;2.67;;;7.70;99.90;;;;;;5056217;28;20183;-74
2022/11/25 03:30:24;;;;;;;9.82;3.05;;;7.70;99.90;;;;;;5051382;28;20131;-74
2022/11/25 03:32:50;;;;;;;10.05;3.30;;;7.70;99.90;;;;;;5070874;28;20130;-73
2022/11/25 03:35:16;;;;;;;7.70;2.55;;;7.80;99.90;;;;;;5053889;28;20083;-75
2022/11/25 03:37:43;;;;;;;10.15;3.13;;;7.70;99.90;;;;;;5034840;28;20055;-75
2022/11/25 03:40:10;;;;;;;7.95;3.20;;;7.70;99.90;;;;;;5061226;28;20547;-76
2022/11/25 03:42:36;;;;;;;9.52;2.55;;;7.70;99.90;;;;;;5068648;28;20044;-75
2022/11/25 03:45:02;;;;;;;6.18;2.10;;;7.70;99.90;;;;;;5035455;28;20055;-75
2022/11/25 03:47:28;;;;;;;7.07;2.65;;;7.70;99.90;;;;;;5033544;28;20063;-75
2022/11/25 03:49:53;;;;;;;9.90;3.08;;;7.80;99.90;;;;;;5043234;28;20097;-75
2022/11/25 03:52:19;;;;;;;7.15;2.97;;;7.70;99.90;;;;;;5068617;28;20040;-74
2022/11/25 03:54:45;;;;;;;7.95;3.00;;;7.80;99.90;;;;;;5071752;28;20102;-75
2022/11/25 03:57:11;;;;;;;5.97;2.60;;;7.80;99.90;;;;;;5051816;28;20044;-75
2022/11/25 03:59:36;;;;;;;8.50;2.88;;;7.80;99.90;;;;;;5058973;28;20079;-75
2022/11/25 04:02:02;;;;;;;9.93;2.80;;;7.80;99.90;;;;;;5050203;28;20037;-75
2022/11/25 04:04:28;;;;;;;7.00;3.10;;;7.80;99.90;;;;;;5080343;28;20102;-74
2022/11/25 04:06:54;;;;;;;7.25;3.00;;;7.80;99.90;;;;;;5049299;28;20049;-74
2022/11/25 04:09:20;;;;;;;7.60;3.10;;;7.80;99.90;;;;;;5055404;28;20052;-74
2022/11/25 04:14:30;;;;;;;8.75;3.30;;;7.80;99.90;;;;;;5053439;28;20040;-75
2022/11/25 04:16:55;;;;;;;8.70;3.28;;;7.80;99.90;;;;;;5049895;28;20037;-74
2022/11/25 04:19:21;;;;;;;7.40;3.38;;;7.80;99.90;;;;;;5047701;28;20055;-75
2022/11/25 04:21:47;;;;;;;7.15;2.90;;;7.80;99.90;;;;;;5069324;28;20117;-74
2022/11/25 04:24:13;;;;;;;9.02;3.30;;;7.80;99.90;;;;;;5068099;28;20072;-74
2022/11/25 04:26:40;;;;;;;7.78;3.60;;;7.70;99.90;;;;;;5056696;28;20121;-75
2022/11/25 04:29:06;;;;;;;9.45;3.45;;;7.80;99.90;;;;;;5057996;28;20143;-75
2022/11/25 04:31:31;;;;;;;9.20;3.67;;;7.90;99.90;;;;;;5057837;28;20556;-74
2022/11/25 04:33:57;;;;;;;11.55;3.13;;;7.90;99.90;;;;;;5059168;28;20051;-75
2022/11/25 04:36:23;;;;;;;6.85;3.03;;;7.90;99.90;;;;;;5050236;28;20060;-75
2022/11/25 04:38:49;;;;;;;8.27;3.20;;;7.80;99.90;;;;;;5034163;28;20052;-76
2022/11/25 04:41:14;;;;;;;8.23;3.60;;;7.80;99.90;;;;;;5068683;28;20044;-75
2022/11/25 04:43:40;;;;;;;7.57;3.17;;;7.80;99.90;;;;;;5063101;28;20048;-75
2022/11/25 04:46:06;;;;;;;6.57;3.05;;;7.80;99.90;;;;;;5052070;28;20114;-74
2022/11/25 04:48:31;;;;;;;4.10;2.65;;;7.90;99.90;;;;;;5049803;28;20045;-74
2022/11/25 04:50:57;;;;;;;6.82;2.70;;;7.90;99.90;;;;;;5039065;28;20032;-75
2022/11/25 04:53:23;;;;;;;7.97;3.15;;;7.90;99.90;;;;;;5053515;28;20080;-76
2022/11/25 04:55:49;;;;;;;6.63;2.97;;;7.80;99.90;;;;;;5055579;28;20052;-74
2022/11/25 04:59:38;;;;;;;6.88;3.20;;;7.90;99.90;;;;;;5050517;28;20548;-75
2022/11/25 05:01:01;;;;;;;9.85;3.20;;;7.80;99.90;;;;;;5056653;28;20044;-75
2022/11/25 05:03:26;;;;;;;7.68;3.38;;;7.80;99.90;;;;;;5059620;28;20056;-75
2022/11/25 05:05:52;;;;;;;9.95;3.38;;;7.80;99.90;;;;;;5048096;28;20051;-75
2022/11/25 05:08:18;;;;;;;6.28;3.10;;;7.90;99.90;;;;;;5055496;28;20056;-75
2022/11/25 05:10:43;;;;;;;6.40;3.15;;;7.90;99.90;;;;;;5050094;28;20515;-75
2022/11/25 05:13:09;;;;;;;5.85;2.95;;;7.90;99.90;;;;;;5046225;28;20484;-76
2022/11/25 05:15:34;;;;;;;5.47;2.80;;;7.80;99.90;;;;;;5049069;28;20074;-75
2022/11/25 05:18:00;;;;;;;5.18;2.63;;;7.80;99.90;;;;;;5054463;28;20480;-75
2022/11/25 05:20:26;;;;;;;7.90;3.63;;;8.00;99.90;;;;;;5067638;28;20496;-76
2022/11/25 05:22:51;;;;;;;11.32;3.83;;;7.90;99.90;;;;;;5048669;28;20094;-75
2022/11/25 05:25:19;;;;;;;6.13;3.00;;;7.90;99.90;;;;;;5066132;28;20064;-75
2022/11/25 05:27:45;;;;;;;5.90;2.17;;;7.80;99.90;;;;;;5051676;28;20044;-76
2022/11/25 05:30:12;;;;;;;9.52;3.72;;;7.90;99.90;;;;;;5062996;28;20522;-75
2022/11/25 05:32:39;;;;;;;;;;;7.90;99.90;;;;;;5058435;28;20037;-75
2022/11/25 05:35:05;;;;;;;5.35;2.80;;;8.00;99.90;;;;;;5060748;28;19924;-75
2022/11/25 05:37:31;;;;;;;8.20;3.17;;;7.90;99.90;;;;;;5067282;28;20056;-75
2022/11/25 05:39:56;;;;;;;9.80;3.25;;;7.90;99.90;;;;;;5055049;28;20060;-75
2022/11/25 05:42:22;;;;;;;4.72;2.42;;;7.90;99.90;;;;;;5049830;28;20131;-76
2022/11/25 05:44:47;;;;;;;5.15;2.55;;;7.90;99.90;;;;;;5045022;28;20159;-75
2022/11/25 05:47:13;;;;;;;6.55;2.53;;;7.90;99.90;;;;;;5036266;28;20052;-75
2022/11/25 05:49:39;;;;;;;5.85;3.05;;;7.90;99.90;;;;;;5044961;28;20044;-76
2022/11/25 05:52:04;;;;;;;10.43;4.20;;;8.00;99.90;;;;;;5032957;28;20048;-76
2022/11/25 05:54:30;;;;;;;9.30;4.30;;;8.00;99.90;;;;;;5052297;28;20124;-75
2022/11/25 05:56:56;;;;;;;8.65;3.95;;;8.00;99.90;;;;;;5034967;28;20048;-75
2022/11/25 05:59:21;;;;;;;5.47;3.38;;;8.00;99.90;;;;;;5052602;28;20108;-76
2022/11/25 06:01:47;;;;;;;6.03;3.67;;;8.00;99.90;;;;;;5037311;28;20066;-75
2022/11/25 06:04:14;;;;;;;9.18;3.75;;;7.90;99.90;;;;;;5040509;28;20043;-75
2022/11/25 06:06:39;;;;;;;8.32;3.58;;;7.90;99.90;;;;;;5052640;28;20049;-75
2022/11/25 06:09:05;;;;;;;8.60;4.20;;;8.00;99.90;;;;;;5051755;28;20392;-75
2022/11/25 06:11:31;;;;;;;8.73;3.50;;;7.90;99.90;;;;;;5052156;28;20107;-74
2022/11/25 06:13:57;;;;;;;10.32;3.97;;;8.00;99.90;;;;;;5049148;28;20075;-75
2022/11/25 06:16:24;;;;;;;9.70;3.85;;;7.90;99.90;;;;;;5057418;28;20044;-75
2022/11/25 06:18:50;;;;;;;6.30;3.30;;;8.00;99.90;;;;;;5073620;28;20128;-75
2022/11/25 06:21:16;;;;;;;5.88;3.42;;;8.00;99.90;;;;;;5060082;28;20128;-75
2022/11/25 06:23:44;;;;;;;;;;;7.90;99.90;;;;;;5064558;28;20054;-75
2022/11/25 06:26:16;;;;;;;8.82;3.88;;;8.00;99.90;;;;;;5072561;28;19935;-75
2022/11/25 06:28:43;;;;;;;7.15;3.65;;;8.00;99.90;;;;;;5043742;28;20049;-76
2022/11/25 06:31:10;;;;;;;;;;;8.00;99.90;;;;;;5057903;28;20135;-75
2022/11/25 06:33:36;;;;;;;9.98;4.00;;;8.00;99.90;;;;;;5057505;28;19928;-75
2022/11/25 06:36:03;;;;;;;5.78;3.83;;;8.00;99.90;;;;;;5059690;28;20048;-75
2022/11/25 06:38:29;;;;;;;7.75;3.75;;;8.00;99.90;;;;;;5046183;28;20563;-75
2022/11/25 06:41:03;;;;;;;7.72;3.67;;;7.90;99.90;;;;;;5061383;28;20483;-69
2022/11/25 06:43:29;;;;;;;6.15;3.10;;;8.10;99.90;;;;;;5062012;28;20051;-69
2022/11/25 06:46:04;;;;;;;6.75;2.95;;;8.10;99.90;;;;;;5059313;28;20076;-70
2022/11/25 06:48:29;;;;;;;4.03;2.50;;;8.10;99.90;;;;;;5041685;28;20052;-69
2022/11/25 06:51:03;;;;;;;3.58;2.28;;;7.90;99.90;;;;;;5058696;28;20445;-70
2022/11/25 06:53:29;;;;;;;7.35;3.63;;;8.00;99.90;;;;;;5059759;28;20453;-70
2022/11/25 06:56:07;;;;;;;6.13;3.15;;;8.10;99.90;;;;;;5056967;28;20045;-76
2022/11/25 06:58:34;;;;;;;5.80;2.78;;;8.10;99.90;;;;;;5044864;28;20045;-74
2022/11/25 07:01:06;;;;;;;7.65;3.03;;;8.10;99.90;;;;;;5064191;28;20048;-75
2022/11/25 07:03:33;;;;;;;5.45;2.70;;;8.00;99.90;;;;;;5055143;28;20037;-75
2022/11/25 07:05:59;;;;;;;4.75;2.50;;;8.10;99.90;;;;;;5060917;28;20056;-75
2022/11/25 07:08:25;;;;;;;;;;;8.00;99.90;;;;;;5057737;28;20048;-75
2022/11/25 07:10:52;;;;;;;4.57;2.28;;;8.10;99.90;;;;;;5048628;28;19924;-69
2022/11/25 07:13:19;;;;;;;5.65;2.58;;;8.10;99.90;;;;;;5051094;28;20082;-69
2022/11/25 07:15:44;;;;;;;7.63;3.60;;;8.00;99.90;;;;;;5067290;28;20037;-70
2022/11/25 07:18:11;;;;;;;5.95;3.35;;;8.10;99.90;;;;;;5070498;28;20052;-70
2022/11/25 07:20:37;;;;;;;6.57;3.17;;;8.20;99.90;;;;;;5036819;28;20650;-75
2022/11/25 07:23:03;;;;;;;7.95;3.97;;;8.20;99.90;;;;;;5056738;28;20044;-76
2022/11/25 07:25:28;;;;;;;8.50;4.20;;;8.10;99.90;;;;;;5072953;28;20033;-76
2022/11/25 07:27:54;;;;;;;7.88;4.05;;;8.20;99.90;;;;;;5073743;28;20580;-75
2022/11/25 07:30:20;;;;;;;9.95;3.67;;;8.20;99.90;;;;;;5058857;28;20512;-75
2022/11/25 07:32:47;;;;;;;6.90;3.38;;;8.20;99.90;;;;;;5062412;28;20047;-74
2022/11/25 07:35:13;;;;;;;5.80;3.10;;;8.30;99.90;;;;;;5057172;28;20106;-76
2022/11/25 07:37:38;;;;;;;5.95;2.88;;;8.30;99.90;;;;;;5060861;28;20496;-75
2022/11/25 07:40:05;;;;;;;6.00;2.42;;;8.30;99.90;;;;;;5032738;28;20041;-76
2022/11/25 07:42:30;;;;;;;;;;;8.30;99.90;;;;;;5055906;28;20032;-77
2022/11/25 07:44:56;;;;;;;5.40;2.15;;;8.30;99.90;;;;;;5063078;28;20077;-77
2022/11/25 07:47:23;;;;;;;5.25;1.77;;;8.20;99.90;;;;;;5073049;28;20045;-76
2022/11/25 07:49:49;;;;;;;3.20;1.70;;;8.30;99.90;;;;;;5056614;28;20072;-77
2022/11/25 07:52:15;;;;;;;4.03;1.70;;;8.20;99.90;;;;;;5065486;28;20068;-76
2022/11/25 07:54:40;;;;;;;5.20;2.40;;;8.10;99.90;;;;;;5036906;28;20056;-77
2022/11/25 07:57:06;;;;;;;4.88;1.95;;;8.20;99.90;;;;;;5057177;28;20044;-78
2022/11/25 07:59:32;;;;;;;6.70;2.47;;;8.20;99.90;;;;;;5044527;28;20054;-77
2022/11/25 08:01:57;;;;;;;3.78;2.22;;;8.20;99.90;;;;;;5038116;28;20209;-76
2022/11/25 08:04:23;;;;;;;4.47;2.40;;;8.20;99.90;;;;;;5082174;28;20045;-77
2022/11/25 08:06:51;;;;;;;5.97;2.47;;;8.30;99.90;;;;;;5034779;28;20044;-78
2022/11/25 08:09:19;;;;;;;5.97;2.28;;;8.30;99.90;;;;;;5061506;28;20036;-77
2022/11/25 08:11:46;;;;;;;4.55;1.77;;;8.20;99.90;;;;;;5048740;28;20055;-78
2022/11/25 08:14:13;;;;;;;4.72;2.00;;;8.10;99.90;;;;;;5059976;28;20120;-77
2022/11/25 08:16:38;;;;;;;4.88;2.05;;;8.20;99.90;;;;;;5033736;28;20076;-77
2022/11/25 08:19:06;;;;;;;5.78;1.80;;;8.10;99.90;;;;;;5058856;28;20095;-77
2022/11/25 08:21:32;;;;;;;5.40;2.00;;;8.10;99.90;;;;;;5068598;28;20084;-77
2022/11/25 08:24:01;;;;;;;4.40;2.03;;;8.00;99.90;;;;;;5062124;28;20040;-77
2022/11/25 08:26:30;;;;;;;3.70;1.52;;;8.00;99.90;;;;;;5058816;28;20110;-77
2022/11/25 08:28:57;;;;;;;5.15;2.00;;;8.00;99.90;;;;;;5065304;28;20565;-77
2022/11/25 08:31:29;;;;;;;7.55;2.30;;;8.00;99.90;;;;;;5060646;28;20032;-76
2022/11/25 08:33:56;;;;;;;5.80;2.50;;;8.00;99.90;;;;;;5055485;28;20056;-76
2022/11/25 08:36:22;;;;;;;6.38;2.40;;;8.10;99.90;;;;;;5054676;28;20052;-77
2022/11/25 08:38:50;;;;;;;5.63;1.98;;;8.10;99.90;;;;;;5063133;28;20048;-78
2022/11/25 08:41:19;;;;;;;5.75;2.00;;;8.00;99.90;;;;;;5070450;28;20159;-77
2022/11/25 08:43:45;;;;;;;4.72;1.98;;;8.00;99.90;;;;;;5055472;28;21698;-77
2022/11/25 08:46:14;;;;;;;3.10;1.80;;;8.20;99.90;;;;;;5039954;28;20064;-77
2022/11/25 08:48:40;;;;;;;4.00;1.92;;;8.10;99.90;;;;;;5060096;28;20072;-77
2022/11/25 08:51:15;;;;;;;5.47;1.98;;;8.10;99.90;;;;;;5064125;28;20055;-77
2022/11/25 08:53:42;;;;;;;5.63;2.08;;;8.20;99.90;;;;;;5068428;28;20044;-77
2022/11/25 08:56:08;;;;;;;3.55;2.00;;;8.10;99.90;;;;;;5069313;28;20053;-77
2022/11/25 08:58:34;;;;;;;;;;;8.20;99.90;;;;;;5066702;28;20056;-77
2022/11/25 09:01:00;;;;;;;5.72;2.00;;;8.10;99.90;;;;;;5059078;28;20636;-76
2022/11/25 09:03:26;;;;;;;7.85;2.25;;;8.20;99.90;;;;;;5054837;28;20060;-77
2022/11/25 09:05:52;;;;;;;4.80;2.30;;;8.20;99.90;;;;;;5046369;28;20133;-76
2022/11/25 09:08:19;;;;;;;5.25;1.75;;;8.20;99.90;;;;;;5068974;28;20080;-77
2022/11/25 09:10:45;;;;;;;5.03;2.30;;;8.20;99.90;;;;;;5067650;28;20111;-76
2022/11/25 09:13:11;;;;;;;2.80;1.70;;;8.20;99.90;;;;;;5062247;28;20123;-77
2022/11/25 09:15:38;;;;;;;3.53;1.77;;;8.40;99.90;;;;;;5037285;28;20033;-77
2022/11/25 09:18:08;;;;;;;5.13;2.08;;;8.30;99.90;;;;;;5058794;28;20049;-77
2022/11/25 09:20:37;;;;;;;7.85;2.80;;;8.40;99.90;;;;;;5033992;28;20039;-77
2022/11/25 09:23:03;;;;;;;7.15;2.20;;;8.30;99.90;;;;;;5053060;28;20037;-76
2022/11/25 09:25:29;;;;;;;;;;;8.40;99.90;;;;;;5054977;28;20044;-77
2022/11/25 09:27:55;;;;;;;5.30;2.40;;;8.40;99.90;;;;;;5044184;28;19929;-78
2022/11/25 09:30:21;;;;;;;6.93;2.70;;;8.50;99.90;;;;;;5041365;28;20048;-76
2022/11/25 09:32:49;;;;;;;7.55;2.80;;;8.40;99.90;;;;;;5063202;28;20071;-75
2022/11/25 09:35:15;;;;;;;9.38;3.05;;;8.50;99.90;;;;;;5059733;28;20064;-76
2022/11/25 09:37:41;;;;;;;9.55;3.10;;;8.50;99.90;;;;;;5041370;28;20152;-75
2022/11/25 09:40:25;;;;;;;6.40;2.40;;;8.60;99.90;;;;;;5067784;28;20065;-75
2022/11/25 09:49:12;;;;;;;8.02;2.30;;;8.70;99.90;;;;;;5061059;28;20044;-70
2022/11/25 09:51:51;;;;;;;5.78;2.30;;;8.80;99.90;;;;;;5054876;28;20373;-70
2022/11/25 09:54:36;;;;;;;7.72;2.85;;;8.80;99.90;;;;;;5052257;28;20075;-70
2022/11/25 09:57:34;;;;;;;4.50;2.30;;;8.80;99.90;;;;;;5059575;28;20051;-70
2022/11/25 10:00:00;;;;;;;6.55;2.30;;;8.90;99.90;;;;;;5026515;28;20044;-76
2022/11/25 10:02:33;;;;;;;6.78;2.72;;;8.90;99.90;;;;;;5046173;28;20045;-76
2022/11/25 10:05:12;;;;;;;4.57;2.45;;;9.00;99.90;;;;;;5045623;28;20142;-77
2022/11/25 10:07:45;;;;;;;6.25;2.35;;;9.00;99.90;;;;;;5046012;28;20430;-71
2022/11/25 10:10:21;;;;;;;6.07;2.50;;;9.10;99.90;;;;;;5036126;28;20040;-72
2022/11/25 10:12:48;;;;;;;7.50;2.28;;;9.10;99.90;;;;;;5057458;28;20041;-70
2022/11/25 10:15:29;;;;;;;6.05;2.40;;;9.10;99.90;;;;;;5056821;28;20487;-72
2022/11/25 10:18:03;;;;;;;5.53;2.28;;;9.20;99.90;;;;;;5039324;28;20043;-70
2022/11/25 10:20:35;;;;;;;5.03;2.40;;;9.20;99.90;;;;;;5055655;28;20582;-70
2022/11/25 10:23:21;;;;;;;4.32;1.92;;;9.30;99.90;;;;;;5067044;28;20444;-75
2022/11/25 10:25:52;;;;;;;4.68;2.03;;;9.40;99.90;;;;;;5059804;28;20053;-77
2022/11/25 10:28:21;;;;;;;4.85;2.33;;;9.50;99.90;;;;;;5058046;28;20051;-77
2022/11/25 10:30:52;;;;;;;7.20;2.53;;;9.60;99.90;;;;;;5055875;28;20041;-76
2022/11/25 10:33:27;;;;;;;5.90;2.10;;;9.70;99.90;;;;;;5066130;28;20079;-76
2022/11/25 10:35:59;;;;;;;4.28;2.00;;;9.90;99.90;;;;;;5044257;28;20064;-69
2022/11/25 10:38:34;;;;;;;5.93;1.98;;;10.00;99.90;;;;;;5040166;28;20106;-69
2022/11/25 10:41:03;;;;;;;9.25;2.78;;;9.90;99.90;;;;;;5064740;28;20083;-70
2022/11/25 10:43:29;;;;;;;5.63;2.13;;;9.90;99.90;;;;;;5066245;28;20044;-69
2022/11/25 10:46:09;;;;;;;7.43;2.50;;;10.10;99.90;;;;;;5066468;28;20037;-70
2022/11/25 10:48:55;;;;;;;7.63;2.53;;;10.00;99.90;;;;;;5062904;28;20199;-69
2022/11/25 10:51:31;;;;;;;5.57;2.38;;;10.10;99.90;;;;;;5062956;28;20090;-70
2022/11/25 10:54:12;;;;;;;5.20;2.10;;;10.10;99.90;;;;;;5068800;28;20526;-70
2022/11/25 10:56:55;;;;;;;6.07;2.17;;;10.20;99.90;;;;;;5053943;28;20376;-70
2022/11/25 10:59:35;;;;;;;10.27;3.30;;;10.20;99.90;;;;;;5070271;28;20101;-69
2022/11/25 11:02:35;;;;;;;6.13;2.22;;;10.20;99.90;;;;;;5068436;28;20399;-75
2022/11/25 11:05:06;;;;;;;8.48;2.53;;;10.50;99.90;;;;;;5067261;28;20045;-77
2022/11/25 11:07:43;;;;;;;9.38;2.42;;;10.70;99.90;;;;;;5057336;28;20050;-75
2022/11/25 11:10:12;;;;;;;8.82;2.20;;;10.80;99.90;;;;;;5068760;28;20115;-73
2022/11/25 11:12:55;;;;;;;6.25;1.67;;;11.00;99.90;;;;;;5063432;28;20040;-75
2022/11/25 11:15:30;;;;;;;6.00;1.92;;;11.20;99.90;;;;;;5039057;28;20424;-76
2022/11/25 11:17:57;;;;;;;5.78;1.80;;;11.40;99.90;;;;;;5059673;28;20150;-76
2022/11/25 11:20:29;;;;;;;8.95;2.70;;;11.50;99.90;;;;;;5060660;28;20048;-75
2022/11/25 11:23:09;;;;;;;5.85;1.80;;;11.40;99.90;;;;;;5044285;28;20105;-76
2022/11/25 11:25:40;;;;;;;7.53;2.13;;;11.60;99.90;;;;;;5061995;28;20444;-70
2022/11/25 11:28:37;;;;;;;6.38;2.13;;;11.50;99.90;;;;;;5048504;28;20036;-70
2022/11/25 11:31:16;;;;;;;7.53;2.30;;;11.50;99.90;;;;;;5054322;28;20032;-70
2022/11/25 11:34:17;;;;;;;6.82;2.28;;;11.50;99.90;;;;;;5062036;28;20079;-69
2022/11/25 11:36:57;;;;;;;5.97;2.20;;;11.50;99.90;;;;;;5001232;28;20050;-69
2022/11/25 11:39:49;;;;;;;8.52;2.45;;;11.60;99.90;;;;;;5069682;28;20129;-70
2022/11/25 11:42:42;;;;;;;8.00;2.00;;;11.70;99.90;;;;;;5040777;28;20361;-70
2022/11/25 11:45:23;;;;;;;4.10;1.75;;;11.70;99.90;;;;;;5058046;28;20398;-70
2022/11/25 11:48:22;;;;;;;5.95;1.73;;;11.90;99.90;;;;;;5053463;28;20067;-70
2022/11/25 11:50:54;;;;;;;7.18;2.00;;;11.80;99.90;;;;;;5067409;28;20472;-70
2022/11/25 11:53:35;;;;;;;7.10;2.00;;;11.60;99.90;;;;;;5056381;28;20070;-70
2022/11/25 11:56:21;;;;;;;7.95;2.17;;;11.40;99.90;;;;;;5062777;28;20404;-70
2022/11/25 11:58:59;;;;;;;6.65;1.92;;;11.10;99.90;;;;;;5063681;28;20052;-75
2022/11/25 12:01:37;;;;;;;5.20;1.42;;;11.10;99.90;;;;;;5048554;28;20059;-74
2022/11/25 12:04:15;;;;;;;4.68;1.60;;;11.30;99.90;;;;;;5064716;28;20048;-75
2022/11/25 12:06:45;;;;;;;6.45;2.20;;;11.50;99.90;;;;;;5066012;28;20522;-75
2022/11/25 12:09:19;;;;;;;6.30;1.85;;;11.60;99.90;;;;;;5051157;28;20041;-75
2022/11/25 12:11:59;;;;;;;7.93;2.00;;;11.80;99.90;;;;;;5067050;28;20117;-75
2022/11/25 12:14:31;;;;;;;8.48;1.90;;;11.60;99.90;;;;;;5068650;28;20048;-75
2022/11/25 12:17:01;;;;;;;7.03;1.77;;;11.70;99.90;;;;;;5069726;28;20145;-75
2022/11/25 12:19:59;;;;;;;8.63;1.85;;;11.80;99.90;;;;;;5068575;28;20468;-76
2022/11/25 12:22:31;;;;;;;6.80;2.20;;;11.90;99.90;;;;;;5047954;28;20408;-74
2022/11/25 12:25:18;;;;;;;5.43;1.70;;;12.00;99.90;;;;;;5062918;28;20033;-75
2022/11/25 12:27:59;;;;;;;10.27;2.42;;;12.30;99.90;;;;;;5067281;28;20044;-70
2022/11/25 12:30:34;;;;;;;6.43;1.70;;;12.30;99.90;;;;;;5068998;28;20533;-70
2022/11/25 12:33:22;;;;;;;9.50;2.20;;;12.30;99.90;;;;;;5055372;28;20045;-77
2022/11/25 12:35:51;;;;;;;8.35;2.00;;;12.30;99.90;;;;;;5061525;28;20052;-76
2022/11/25 12:38:21;;;;;;;8.98;1.92;;;12.10;99.90;;;;;;5070653;28;20048;-76
2022/11/25 12:41:01;;;;;;;6.75;1.65;;;11.80;99.90;;;;;;5053937;28;20072;-76
2022/11/25 12:43:59;;;;;;;9.68;1.88;;;11.80;99.90;;;;;;5052684;28;20514;-79
2022/11/25 12:46:24;;;;;;;;;;;12.00;99.90;;;;;;5028336;28;20045;-76
2022/11/25 12:48:52;;;;;;;7.28;1.77;;;12.10;99.90;;;;;;5067326;28;19981;-76
2022/11/25 12:52:01;;;;;;;4.78;1.63;;;12.20;99.90;;;;;;5051324;28;20060;-77
2022/11/25 12:54:26;;;;;;;6.40;1.55;;;12.40;99.90;;;;;;5055892;28;20547;-76
2022/11/25 12:57:19;;;;;;;8.10;1.52;;;12.50;99.90;;;;;;5061187;28;20056;-76
2022/11/25 12:59:51;;;;;;;5.18;1.40;;;12.50;99.90;;;;;;5059473;28;20040;-76
2022/11/25 13:02:20;;;;;;;9.10;1.95;;;12.70;99.90;;;;;;5045039;28;20039;-76
2022/11/25 13:04:57;;;;;;;8.25;2.20;;;12.70;99.90;;;;;;5055948;28;20047;-76
2022/11/25 13:07:55;;;;;;;8.05;2.00;;;12.60;99.90;;;;;;5074590;28;20044;-76
2022/11/25 13:10:37;;;;;;;8.40;1.90;;;12.70;99.90;;;;;;5055997;28;20053;-77
2022/11/25 13:13:24;;;;;;;6.90;1.73;;;12.70;99.90;;;;;;5059096;28;20037;-76
2022/11/25 13:15:52;;;;;;;5.30;1.65;;;12.80;99.90;;;;;;5074522;28;20129;-76
2022/11/25 13:18:24;;;;;;;6.28;1.65;;;12.60;99.90;;;;;;5072258;28;20059;-76
2022/11/25 13:20:54;;;;;;;10.77;2.13;;;12.40;99.90;;;;;;5073942;28;20403;-76
2022/11/25 13:23:25;;;;;;;10.27;2.00;;;12.20;99.90;;;;;;5073923;28;20534;-75
2022/11/25 13:26:12;;;;;;;8.30;2.25;;;12.20;99.90;;;;;;5073522;28;20083;-76
2022/11/25 13:28:38;;;;;;;6.63;1.50;;;12.30;99.90;;;;;;5069064;28;20144;-77